sensor_id;sensor_type;location;lat;lon;timestamp;temperature;humidity
13699;DHT22;6921;53.642;9.956;2023-12-28T00:00:43;8.10;99.90
13699;DHT22;6921;53.642;9.956;2023-12-28T00:02:46;7.90;99.90
13699;DHT22;6921;53.642;9.956;2023-12-28T00:04:49;8.10;99.90
13699;DHT22;6921;53.642;9.956;2023-12-28T00:06:51;8.30;99.90
13699;DHT22;6921;53.642;9.956;2023-12-28T00:08:55;8.30;99.90
13699;DHT22;6921;53.642;9.956;2023-12-28T00:11:03;7.90;99.90
13699;DHT22;6921;53.642;9.956;2023-12-28T00:13:08;7.90;99.90
13699;DHT22;6921;53.642;9.956;2023-12-28T00:15:11;7.80;99.90
13699;DHT22;6921;53.642;9.956;2023-12-28T00:17:14;7.80;99.90
13699;DHT22;6921;53.642;9.956;2023-12-28T00:19:17;8.20;99.90
13699;DHT22;6921;53.642;9.956;2023-12-28T00:21:21;7.80;99.90
13699;DHT22;6921;53.642;9.956;2023-12-28T00:23:24;7.70;99.90
13699;DHT22;6921;53.642;9.956;2023-12-28T00:25:28;7.60;99.90
13699;DHT22;6921;53.642;9.956;2023-12-28T00:27:32;8.00;99.90
13699;DHT22;6921;53.642;9.956;2023-12-28T00:29:39;7.70;99.90
13699;DHT22;6921;53.642;9.956;2023-12-28T00:31:43;7.80;99.90
13699;DHT22;6921;53.642;9.956;2023-12-28T00:33:45;8.70;99.90
13699;DHT22;6921;53.642;9.956;2023-12-28T00:35:48;7.60;99.90
13699;DHT22;6921;53.642;9.956;2023-12-28T00:37:51;8.30;99.90
13699;DHT22;6921;53.642;9.956;2023-12-28T00:39:55;7.60;99.90
13699;DHT22;6921;53.642;9.956;2023-12-28T00:41:58;7.50;99.90
13699;DHT22;6921;53.642;9.956;2023-12-28T00:44:02;7.80;99.90
13699;DHT22;6921;53.642;9.956;2023-12-28T00:48:10;7.40;99.90
13699;DHT22;6921;53.642;9.956;2023-12-28T00:50:13;7.40;99.90
13699;DHT22;6921;53.642;9.956;2023-12-28T00:54:20;7.40;99.90
13699;DHT22;6921;53.642;9.956;2023-12-28T00:56:24;7.70;99.90
13699;DHT22;6921;53.642;9.956;2023-12-28T01:00:31;7.40;99.90
13699;DHT22;6921;53.642;9.956;2023-12-28T01:04:37;7.40;99.90
13699;DHT22;6921;53.642;9.956;2023-12-28T01:06:40;8.10;99.90
13699;DHT22;6921;53.642;9.956;2023-12-28T01:08:43;8.00;99.90
13699;DHT22;6921;53.642;9.956;2023-12-28T01:10:46;7.70;99.90
13699;DHT22;6921;53.642;9.956;2023-12-28T01:12:49;7.50;99.90
13699;DHT22;6921;53.642;9.956;2023-12-28T01:14:52;7.40;99.90
13699;DHT22;6921;53.642;9.956;2023-12-28T01:16:57;7.40;99.90
13699;DHT22;6921;53.642;9.956;2023-12-28T01:19:00;7.50;99.90
13699;DHT22;6921;53.642;9.956;2023-12-28T01:21:03;7.50;99.90
13699;DHT22;6921;53.642;9.956;2023-12-28T01:23:06;7.60;99.90
13699;DHT22;6921;53.642;9.956;2023-12-28T01:25:09;8.40;99.90
13699;DHT22;6921;53.642;9.956;2023-12-28T01:27:12;7.70;99.90
13699;DHT22;6921;53.642;9.956;2023-12-28T01:29:15;7.80;99.90
13699;DHT22;6921;53.642;9.956;2023-12-28T01:31:18;7.70;99.90
13699;DHT22;6921;53.642;9.956;2023-12-28T01:33:23;7.80;99.90
13699;DHT22;6921;53.642;9.956;2023-12-28T01:35:26;8.00;99.90
13699;DHT22;6921;53.642;9.956;2023-12-28T01:37:29;7.50;99.90
13699;DHT22;6921;53.642;9.956;2023-12-28T01:39:35;7.60;99.90
13699;DHT22;6921;53.642;9.956;2023-12-28T01:41:38;8.00;99.90
13699;DHT22;6921;53.642;9.956;2023-12-28T01:43:41;7.60;99.90
13699;DHT22;6921;53.642;9.956;2023-12-28T01:45:44;7.40;99.90
13699;DHT22;6921;53.642;9.956;2023-12-28T01:47:48;8.00;99.90
13699;DHT22;6921;53.642;9.956;2023-12-28T01:49:54;8.00;99.90
13699;DHT22;6921;53.642;9.956;2023-12-28T01:51:56;7.70;99.90
13699;DHT22;6921;53.642;9.956;2023-12-28T01:54:00;7.60;99.90
13699;DHT22;6921;53.642;9.956;2023-12-28T01:56:04;7.70;99.90
13699;DHT22;6921;53.642;9.956;2023-12-28T01:58:07;7.70;99.90
13699;DHT22;6921;53.642;9.956;2023-12-28T02:00:11;7.70;99.90
13699;DHT22;6921;53.642;9.956;2023-12-28T02:02:14;7.70;99.90
13699;DHT22;6921;53.642;9.956;2023-12-28T02:04:17;8.50;99.90
13699;DHT22;6921;53.642;9.956;2023-12-28T02:06:29;7.80;99.90
13699;DHT22;6921;53.642;9.956;2023-12-28T02:08:32;8.40;99.90
13699;DHT22;6921;53.642;9.956;2023-12-28T02:10:36;7.80;99.90
13699;DHT22;6921;53.642;9.956;2023-12-28T02:12:39;7.90;99.90
13699;DHT22;6921;53.642;9.956;2023-12-28T02:16:50;7.80;99.90
13699;DHT22;6921;53.642;9.956;2023-12-28T02:18:56;7.90;99.90
13699;DHT22;6921;53.642;9.956;2023-12-28T02:21:02;8.30;99.90
13699;DHT22;6921;53.642;9.956;2023-12-28T02:23:07;7.90;99.90
13699;DHT22;6921;53.642;9.956;2023-12-28T02:25:14;8.20;99.90
13699;DHT22;6921;53.642;9.956;2023-12-28T02:27:17;8.00;99.90
13699;DHT22;6921;53.642;9.956;2023-12-28T02:29:20;8.30;99.90
13699;DHT22;6921;53.642;9.956;2023-12-28T02:31:28;8.30;99.90
13699;DHT22;6921;53.642;9.956;2023-12-28T02:33:35;8.40;99.90
13699;DHT22;6921;53.642;9.956;2023-12-28T02:35:42;8.10;99.90
13699;DHT22;6921;53.642;9.956;2023-12-28T02:37:50;8.00;99.90
13699;DHT22;6921;53.642;9.956;2023-12-28T02:39:54;8.10;99.90
13699;DHT22;6921;53.642;9.956;2023-12-28T02:41:59;8.10;99.90
13699;DHT22;6921;53.642;9.956;2023-12-28T02:44:02;8.40;99.90
13699;DHT22;6921;53.642;9.956;2023-12-28T02:46:05;8.00;99.90
13699;DHT22;6921;53.642;9.956;2023-12-28T02:48:08;8.00;99.90
13699;DHT22;6921;53.642;9.956;2023-12-28T02:50:12;8.10;99.90
13699;DHT22;6921;53.642;9.956;2023-12-28T02:52:14;8.00;99.90
13699;DHT22;6921;53.642;9.956;2023-12-28T02:56:20;8.00;99.90
13699;DHT22;6921;53.642;9.956;2023-12-28T02:58:24;8.00;99.90
13699;DHT22;6921;53.642;9.956;2023-12-28T03:00:27;7.90;99.90
13699;DHT22;6921;53.642;9.956;2023-12-28T03:02:31;7.90;99.90
13699;DHT22;6921;53.642;9.956;2023-12-28T03:04:34;8.30;99.90
13699;DHT22;6921;53.642;9.956;2023-12-28T03:06:37;7.90;99.90
13699;DHT22;6921;53.642;9.956;2023-12-28T03:08:42;7.90;99.90
13699;DHT22;6921;53.642;9.956;2023-12-28T03:10:45;7.90;99.90
13699;DHT22;6921;53.642;9.956;2023-12-28T03:12:49;8.30;99.90
13699;DHT22;6921;53.642;9.956;2023-12-28T03:14:52;8.30;99.90
13699;DHT22;6921;53.642;9.956;2023-12-28T03:16:55;7.90;99.90
13699;DHT22;6921;53.642;9.956;2023-12-28T03:18:57;8.40;99.90
13699;DHT22;6921;53.642;9.956;2023-12-28T03:21:00;8.00;99.90
13699;DHT22;6921;53.642;9.956;2023-12-28T03:23:03;8.00;99.90
13699;DHT22;6921;53.642;9.956;2023-12-28T03:25:07;8.00;99.90
13699;DHT22;6921;53.642;9.956;2023-12-28T03:27:10;8.00;99.90
13699;DHT22;6921;53.642;9.956;2023-12-28T03:29:13;7.90;99.90
13699;DHT22;6921;53.642;9.956;2023-12-28T03:31:17;8.90;99.90
13699;DHT22;6921;53.642;9.956;2023-12-28T03:33:21;8.00;99.90
13699;DHT22;6921;53.642;9.956;2023-12-28T03:35:24;7.90;99.90
13699;DHT22;6921;53.642;9.956;2023-12-28T03:37:27;8.20;99.90
13699;DHT22;6921;53.642;9.956;2023-12-28T03:39:30;8.30;99.90
13699;DHT22;6921;53.642;9.956;2023-12-28T03:41:33;8.00;99.90
13699;DHT22;6921;53.642;9.956;2023-12-28T03:43:36;8.40;99.90
13699;DHT22;6921;53.642;9.956;2023-12-28T03:45:39;8.20;99.90
13699;DHT22;6921;53.642;9.956;2023-12-28T03:47:44;8.00;99.90
13699;DHT22;6921;53.642;9.956;2023-12-28T03:49:47;8.40;99.90
13699;DHT22;6921;53.642;9.956;2023-12-28T03:51:51;8.10;99.90
13699;DHT22;6921;53.642;9.956;2023-12-28T03:55:58;8.00;99.90
13699;DHT22;6921;53.642;9.956;2023-12-28T03:58:00;7.90;99.90
13699;DHT22;6921;53.642;9.956;2023-12-28T04:00:04;8.10;99.90
13699;DHT22;6921;53.642;9.956;2023-12-28T04:02:08;7.90;99.90
13699;DHT22;6921;53.642;9.956;2023-12-28T04:04:12;8.80;99.90
13699;DHT22;6921;53.642;9.956;2023-12-28T04:06:15;8.30;99.90
13699;DHT22;6921;53.642;9.956;2023-12-28T04:08:19;8.40;99.90
13699;DHT22;6921;53.642;9.956;2023-12-28T04:10:29;8.10;99.90
13699;DHT22;6921;53.642;9.956;2023-12-28T04:12:33;8.90;99.90
13699;DHT22;6921;53.642;9.956;2023-12-28T04:14:36;8.00;99.90
13699;DHT22;6921;53.642;9.956;2023-12-28T04:16:39;8.40;99.90
13699;DHT22;6921;53.642;9.956;2023-12-28T04:18:43;7.90;99.90
13699;DHT22;6921;53.642;9.956;2023-12-28T04:20:48;7.90;99.90
13699;DHT22;6921;53.642;9.956;2023-12-28T04:24:56;8.00;99.90
13699;DHT22;6921;53.642;9.956;2023-12-28T04:26:59;8.10;99.90
13699;DHT22;6921;53.642;9.956;2023-12-28T04:29:02;8.20;99.90
13699;DHT22;6921;53.642;9.956;2023-12-28T04:31:06;7.90;99.90
13699;DHT22;6921;53.642;9.956;2023-12-28T04:33:09;7.90;99.90
13699;DHT22;6921;53.642;9.956;2023-12-28T04:35:13;7.90;99.90
13699;DHT22;6921;53.642;9.956;2023-12-28T04:37:16;7.90;99.90
13699;DHT22;6921;53.642;9.956;2023-12-28T04:39:19;8.60;99.90
13699;DHT22;6921;53.642;9.956;2023-12-28T04:41:23;7.60;99.90
13699;DHT22;6921;53.642;9.956;2023-12-28T04:43:26;8.20;99.90
13699;DHT22;6921;53.642;9.956;2023-12-28T04:45:28;8.00;99.90
13699;DHT22;6921;53.642;9.956;2023-12-28T04:47:31;8.10;99.90
13699;DHT22;6921;53.642;9.956;2023-12-28T04:51:42;8.00;99.90
13699;DHT22;6921;53.642;9.956;2023-12-28T04:53:47;8.00;99.90
13699;DHT22;6921;53.642;9.956;2023-12-28T04:55:50;8.10;99.90
13699;DHT22;6921;53.642;9.956;2023-12-28T04:57:53;8.20;99.90
13699;DHT22;6921;53.642;9.956;2023-12-28T04:59:56;7.90;99.90
13699;DHT22;6921;53.642;9.956;2023-12-28T05:01:59;7.90;99.90
13699;DHT22;6921;53.642;9.956;2023-12-28T05:04:02;7.80;99.90
13699;DHT22;6921;53.642;9.956;2023-12-28T05:06:06;7.80;99.90
13699;DHT22;6921;53.642;9.956;2023-12-28T05:08:09;7.80;99.90
13699;DHT22;6921;53.642;9.956;2023-12-28T05:10:14;7.80;99.90
13699;DHT22;6921;53.642;9.956;2023-12-28T05:12:17;8.20;99.90
13699;DHT22;6921;53.642;9.956;2023-12-28T05:14:20;8.40;99.90
13699;DHT22;6921;53.642;9.956;2023-12-28T05:16:23;9.40;99.90
13699;DHT22;6921;53.642;9.956;2023-12-28T05:18:26;8.10;99.90
13699;DHT22;6921;53.642;9.956;2023-12-28T05:20:29;7.80;99.90
13699;DHT22;6921;53.642;9.956;2023-12-28T05:22:32;7.80;99.90
13699;DHT22;6921;53.642;9.956;2023-12-28T05:24:34;7.80;99.90
13699;DHT22;6921;53.642;9.956;2023-12-28T05:26:39;8.00;99.90
13699;DHT22;6921;53.642;9.956;2023-12-28T05:28:42;7.70;99.90
13699;DHT22;6921;53.642;9.956;2023-12-28T05:30:45;7.90;99.90
13699;DHT22;6921;53.642;9.956;2023-12-28T05:32:49;7.80;99.90
13699;DHT22;6921;53.642;9.956;2023-12-28T05:34:52;7.80;99.90
13699;DHT22;6921;53.642;9.956;2023-12-28T05:36:55;7.80;99.90
13699;DHT22;6921;53.642;9.956;2023-12-28T05:41:04;7.80;99.90
13699;DHT22;6921;53.642;9.956;2023-12-28T05:43:09;9.00;99.90
13699;DHT22;6921;53.642;9.956;2023-12-28T05:45:12;7.80;99.90
13699;DHT22;6921;53.642;9.956;2023-12-28T05:47:14;7.80;99.90
13699;DHT22;6921;53.642;9.956;2023-12-28T05:49:17;8.20;99.90
13699;DHT22;6921;53.642;9.956;2023-12-28T05:51:20;7.80;99.90
13699;DHT22;6921;53.642;9.956;2023-12-28T05:55:26;7.90;99.90
13699;DHT22;6921;53.642;9.956;2023-12-28T05:57:29;7.90;99.90
13699;DHT22;6921;53.642;9.956;2023-12-28T05:59:37;8.30;99.90
13699;DHT22;6921;53.642;9.956;2023-12-28T06:01:43;7.90;99.90
13699;DHT22;6921;53.642;9.956;2023-12-28T06:03:46;8.30;99.90
13699;DHT22;6921;53.642;9.956;2023-12-28T06:05:51;8.10;99.90
13699;DHT22;6921;53.642;9.956;2023-12-28T06:07:54;8.60;99.90
13699;DHT22;6921;53.642;9.956;2023-12-28T06:09:57;8.10;99.90
13699;DHT22;6921;53.642;9.956;2023-12-28T06:12:00;8.40;99.90
13699;DHT22;6921;53.642;9.956;2023-12-28T06:14:03;8.20;99.90
13699;DHT22;6921;53.642;9.956;2023-12-28T06:16:07;8.30;99.90
13699;DHT22;6921;53.642;9.956;2023-12-28T06:20:14;8.50;99.90
13699;DHT22;6921;53.642;9.956;2023-12-28T06:22:17;8.50;99.90
13699;DHT22;6921;53.642;9.956;2023-12-28T06:24:20;8.60;99.90
13699;DHT22;6921;53.642;9.956;2023-12-28T06:26:23;8.60;99.90
13699;DHT22;6921;53.642;9.956;2023-12-28T06:28:25;8.60;99.90
13699;DHT22;6921;53.642;9.956;2023-12-28T06:30:28;8.70;99.90
13699;DHT22;6921;53.642;9.956;2023-12-28T06:32:33;8.70;99.90
13699;DHT22;6921;53.642;9.956;2023-12-28T06:34:36;8.70;99.90
13699;DHT22;6921;53.642;9.956;2023-12-28T06:36:39;8.90;99.90
13699;DHT22;6921;53.642;9.956;2023-12-28T06:38:42;8.70;99.90
13699;DHT22;6921;53.642;9.956;2023-12-28T06:40:46;9.20;99.90
13699;DHT22;6921;53.642;9.956;2023-12-28T06:42:49;8.80;99.90
13699;DHT22;6921;53.642;9.956;2023-12-28T06:44:51;8.80;99.90
13699;DHT22;6921;53.642;9.956;2023-12-28T06:46:54;8.90;99.90
13699;DHT22;6921;53.642;9.956;2023-12-28T06:48:58;8.90;99.90
13699;DHT22;6921;53.642;9.956;2023-12-28T06:51:02;8.90;99.90
13699;DHT22;6921;53.642;9.956;2023-12-28T06:53:04;9.00;99.90
13699;DHT22;6921;53.642;9.956;2023-12-28T06:55:08;9.00;99.90
13699;DHT22;6921;53.642;9.956;2023-12-28T06:57:11;9.00;99.90
13699;DHT22;6921;53.642;9.956;2023-12-28T06:59:14;9.00;99.90
13699;DHT22;6921;53.642;9.956;2023-12-28T07:01:18;9.10;99.90
13699;DHT22;6921;53.642;9.956;2023-12-28T07:03:21;9.10;99.90
13699;DHT22;6921;53.642;9.956;2023-12-28T07:05:27;9.10;99.90
13699;DHT22;6921;53.642;9.956;2023-12-28T07:07:31;9.10;99.90
13699;DHT22;6921;53.642;9.956;2023-12-28T07:09:34;9.10;99.90
13699;DHT22;6921;53.642;9.956;2023-12-28T07:11:37;9.20;99.90
13699;DHT22;6921;53.642;9.956;2023-12-28T07:13:40;9.10;99.90
13699;DHT22;6921;53.642;9.956;2023-12-28T07:15:43;9.70;99.90
13699;DHT22;6921;53.642;9.956;2023-12-28T07:17:47;9.20;99.90
13699;DHT22;6921;53.642;9.956;2023-12-28T07:19:50;9.30;99.90
13699;DHT22;6921;53.642;9.956;2023-12-28T07:21:54;9.20;99.90
13699;DHT22;6921;53.642;9.956;2023-12-28T07:23:58;9.10;99.90
13699;DHT22;6921;53.642;9.956;2023-12-28T07:26:01;9.10;99.90
13699;DHT22;6921;53.642;9.956;2023-12-28T07:28:04;9.10;99.90
13699;DHT22;6921;53.642;9.956;2023-12-28T07:30:08;9.30;99.90
13699;DHT22;6921;53.642;9.956;2023-12-28T07:32:12;9.10;99.90
13699;DHT22;6921;53.642;9.956;2023-12-28T07:34:16;9.50;99.90
13699;DHT22;6921;53.642;9.956;2023-12-28T07:36:20;9.10;99.90
13699;DHT22;6921;53.642;9.956;2023-12-28T07:38:25;9.20;99.90
13699;DHT22;6921;53.642;9.956;2023-12-28T07:40:28;9.10;99.90
13699;DHT22;6921;53.642;9.956;2023-12-28T07:42:31;9.10;99.90
13699;DHT22;6921;53.642;9.956;2023-12-28T07:44:34;9.20;99.90
13699;DHT22;6921;53.642;9.956;2023-12-28T07:46:37;9.10;99.90
13699;DHT22;6921;53.642;9.956;2023-12-28T07:48:40;9.10;99.90
13699;DHT22;6921;53.642;9.956;2023-12-28T07:50:44;9.10;99.90
13699;DHT22;6921;53.642;9.956;2023-12-28T07:52:48;9.10;99.90
13699;DHT22;6921;53.642;9.956;2023-12-28T07:54:52;9.50;99.90
13699;DHT22;6921;53.642;9.956;2023-12-28T07:56:55;9.70;99.90
13699;DHT22;6921;53.642;9.956;2023-12-28T07:58:58;9.10;99.90
13699;DHT22;6921;53.642;9.956;2023-12-28T08:01:01;9.40;99.90
13699;DHT22;6921;53.642;9.956;2023-12-28T08:03:04;9.70;99.90
13699;DHT22;6921;53.642;9.956;2023-12-28T08:05:08;9.20;99.90
13699;DHT22;6921;53.642;9.956;2023-12-28T08:07:12;9.10;99.90
13699;DHT22;6921;53.642;9.956;2023-12-28T08:09:15;9.30;99.90
13699;DHT22;6921;53.642;9.956;2023-12-28T08:11:19;9.80;99.90
13699;DHT22;6921;53.642;9.956;2023-12-28T08:13:22;9.20;99.90
13699;DHT22;6921;53.642;9.956;2023-12-28T08:15:25;9.20;99.90
13699;DHT22;6921;53.642;9.956;2023-12-28T08:19:40;9.40;99.90
13699;DHT22;6921;53.642;9.956;2023-12-28T08:21:42;9.40;99.90
13699;DHT22;6921;53.642;9.956;2023-12-28T08:23:45;10.30;99.90
13699;DHT22;6921;53.642;9.956;2023-12-28T08:25:48;9.50;99.90
13699;DHT22;6921;53.642;9.956;2023-12-28T08:27:53;10.30;99.90
13699;DHT22;6921;53.642;9.956;2023-12-28T08:29:56;9.50;99.90
13699;DHT22;6921;53.642;9.956;2023-12-28T08:36:07;9.70;99.90
13699;DHT22;6921;53.642;9.956;2023-12-28T08:38:11;9.70;99.90
13699;DHT22;6921;53.642;9.956;2023-12-28T08:40:14;9.80;99.90
13699;DHT22;6921;53.642;9.956;2023-12-28T08:42:18;9.90;99.90
13699;DHT22;6921;53.642;9.956;2023-12-28T08:44:22;9.80;99.90
13699;DHT22;6921;53.642;9.956;2023-12-28T08:46:26;10.10;99.90
13699;DHT22;6921;53.642;9.956;2023-12-28T08:48:29;9.80;99.90
13699;DHT22;6921;53.642;9.956;2023-12-28T08:50:32;9.80;99.90
13699;DHT22;6921;53.642;9.956;2023-12-28T08:52:36;10.30;99.90
13699;DHT22;6921;53.642;9.956;2023-12-28T08:54:38;9.90;99.90
13699;DHT22;6921;53.642;9.956;2023-12-28T08:56:42;9.90;99.90
13699;DHT22;6921;53.642;9.956;2023-12-28T08:58:47;10.20;99.90
13699;DHT22;6921;53.642;9.956;2023-12-28T09:00:51;10.00;99.90
13699;DHT22;6921;53.642;9.956;2023-12-28T09:02:55;9.90;99.90
13699;DHT22;6921;53.642;9.956;2023-12-28T09:04:58;10.30;99.90
13699;DHT22;6921;53.642;9.956;2023-12-28T09:07:02;10.00;99.90
13699;DHT22;6921;53.642;9.956;2023-12-28T09:09:06;10.20;99.90
13699;DHT22;6921;53.642;9.956;2023-12-28T09:11:10;10.10;99.90
13699;DHT22;6921;53.642;9.956;2023-12-28T09:13:15;10.10;99.90
13699;DHT22;6921;53.642;9.956;2023-12-28T09:15:18;10.50;99.90
13699;DHT22;6921;53.642;9.956;2023-12-28T09:17:23;10.20;99.90
13699;DHT22;6921;53.642;9.956;2023-12-28T09:19:26;10.20;99.90
13699;DHT22;6921;53.642;9.956;2023-12-28T09:21:30;10.30;99.90
13699;DHT22;6921;53.642;9.956;2023-12-28T09:23:34;10.30;99.90
13699;DHT22;6921;53.642;9.956;2023-12-28T09:25:36;10.30;99.90
13699;DHT22;6921;53.642;9.956;2023-12-28T09:27:40;10.30;99.90
13699;DHT22;6921;53.642;9.956;2023-12-28T09:29:43;10.30;99.90
13699;DHT22;6921;53.642;9.956;2023-12-28T09:33:51;10.40;99.90
13699;DHT22;6921;53.642;9.956;2023-12-28T09:35:55;10.50;99.90
13699;DHT22;6921;53.642;9.956;2023-12-28T09:37:58;10.40;99.90
13699;DHT22;6921;53.642;9.956;2023-12-28T09:40:02;10.50;99.90
13699;DHT22;6921;53.642;9.956;2023-12-28T09:42:09;10.40;99.90
13699;DHT22;6921;53.642;9.956;2023-12-28T09:44:17;10.50;99.90
13699;DHT22;6921;53.642;9.956;2023-12-28T09:46:21;10.50;99.90
13699;DHT22;6921;53.642;9.956;2023-12-28T09:50:29;10.60;99.90
13699;DHT22;6921;53.642;9.956;2023-12-28T09:52:31;10.60;99.90
13699;DHT22;6921;53.642;9.956;2023-12-28T09:56:40;10.60;99.90
13699;DHT22;6921;53.642;9.956;2023-12-28T09:58:44;10.60;99.90
13699;DHT22;6921;53.642;9.956;2023-12-28T10:00:50;10.60;99.90
13699;DHT22;6921;53.642;9.956;2023-12-28T10:04:56;10.60;99.90
13699;DHT22;6921;53.642;9.956;2023-12-28T10:07:00;10.80;99.90
13699;DHT22;6921;53.642;9.956;2023-12-28T10:09:03;10.60;99.90
13699;DHT22;6921;53.642;9.956;2023-12-28T10:11:09;10.70;99.90
13699;DHT22;6921;53.642;9.956;2023-12-28T10:13:12;10.70;99.90
13699;DHT22;6921;53.642;9.956;2023-12-28T10:15:16;10.70;99.90
13699;DHT22;6921;53.642;9.956;2023-12-28T10:17:20;8.90;99.90
13699;DHT22;6921;53.642;9.956;2023-12-28T10:19:22;10.80;99.90
13699;DHT22;6921;53.642;9.956;2023-12-28T10:21:26;10.80;99.90
13699;DHT22;6921;53.642;9.956;2023-12-28T10:23:30;10.90;99.90
13699;DHT22;6921;53.642;9.956;2023-12-28T10:25:33;10.90;99.90
13699;DHT22;6921;53.642;9.956;2023-12-28T10:27:38;10.90;99.90
13699;DHT22;6921;53.642;9.956;2023-12-28T10:31:45;10.80;99.90
13699;DHT22;6921;53.642;9.956;2023-12-28T10:35:58;10.90;99.90
13699;DHT22;6921;53.642;9.956;2023-12-28T10:40:10;10.80;99.90
13699;DHT22;6921;53.642;9.956;2023-12-28T10:44:20;10.90;99.90
13699;DHT22;6921;53.642;9.956;2023-12-28T10:46:26;10.80;99.90
13699;DHT22;6921;53.642;9.956;2023-12-28T10:48:37;10.80;99.90
13699;DHT22;6921;53.642;9.956;2023-12-28T10:50:42;11.00;99.90
13699;DHT22;6921;53.642;9.956;2023-12-28T10:52:53;10.90;99.90
13699;DHT22;6921;53.642;9.956;2023-12-28T10:55:05;11.00;99.90
13699;DHT22;6921;53.642;9.956;2023-12-28T10:57:23;11.10;99.90
13699;DHT22;6921;53.642;9.956;2023-12-28T10:59:39;11.10;99.90
13699;DHT22;6921;53.642;9.956;2023-12-28T11:01:47;11.30;99.90
13699;DHT22;6921;53.642;9.956;2023-12-28T11:03:58;11.20;99.90
13699;DHT22;6921;53.642;9.956;2023-12-28T11:06:07;11.20;99.90
13699;DHT22;6921;53.642;9.956;2023-12-28T11:08:11;11.20;99.90
13699;DHT22;6921;53.642;9.956;2023-12-28T11:10:16;11.50;99.90
13699;DHT22;6921;53.642;9.956;2023-12-28T11:12:21;11.10;99.90
13699;DHT22;6921;53.642;9.956;2023-12-28T11:14:26;11.70;99.90
13699;DHT22;6921;53.642;9.956;2023-12-28T11:16:29;11.30;99.90
13699;DHT22;6921;53.642;9.956;2023-12-28T11:18:33;11.30;99.90
13699;DHT22;6921;53.642;9.956;2023-12-28T11:20:35;11.40;99.90
13699;DHT22;6921;53.642;9.956;2023-12-28T11:22:39;11.30;99.90
13699;DHT22;6921;53.642;9.956;2023-12-28T11:26:52;10.90;99.90
13699;DHT22;6921;53.642;9.956;2023-12-28T11:29:02;11.20;99.90
13699;DHT22;6921;53.642;9.956;2023-12-28T11:31:05;11.10;99.90
13699;DHT22;6921;53.642;9.956;2023-12-28T11:33:10;11.00;99.90
13699;DHT22;6921;53.642;9.956;2023-12-28T11:35:13;11.10;99.90
13699;DHT22;6921;53.642;9.956;2023-12-28T11:37:17;10.90;99.90
13699;DHT22;6921;53.642;9.956;2023-12-28T11:39:29;11.00;99.90
13699;DHT22;6921;53.642;9.956;2023-12-28T11:41:35;11.00;99.90
13699;DHT22;6921;53.642;9.956;2023-12-28T11:45:48;11.00;99.90
13699;DHT22;6921;53.642;9.956;2023-12-28T11:48:01;11.00;99.90
13699;DHT22;6921;53.642;9.956;2023-12-28T11:50:09;11.00;99.90
13699;DHT22;6921;53.642;9.956;2023-12-28T11:52:21;11.10;99.90
13699;DHT22;6921;53.642;9.956;2023-12-28T11:54:24;11.00;99.90
13699;DHT22;6921;53.642;9.956;2023-12-28T11:56:28;11.20;99.90
13699;DHT22;6921;53.642;9.956;2023-12-28T11:58:31;11.10;99.90
13699;DHT22;6921;53.642;9.956;2023-12-28T12:00:36;11.10;99.90
13699;DHT22;6921;53.642;9.956;2023-12-28T12:02:43;11.10;99.90
13699;DHT22;6921;53.642;9.956;2023-12-28T12:04:48;11.30;99.90
13699;DHT22;6921;53.642;9.956;2023-12-28T12:06:53;11.80;99.90
13699;DHT22;6921;53.642;9.956;2023-12-28T12:08:56;11.40;99.90
13699;DHT22;6921;53.642;9.956;2023-12-28T12:11:01;11.10;99.90
13699;DHT22;6921;53.642;9.956;2023-12-28T12:13:05;11.10;99.90
13699;DHT22;6921;53.642;9.956;2023-12-28T12:15:09;11.20;99.90
13699;DHT22;6921;53.642;9.956;2023-12-28T12:17:12;11.20;99.90
13699;DHT22;6921;53.642;9.956;2023-12-28T12:19:17;11.10;99.90
13699;DHT22;6921;53.642;9.956;2023-12-28T12:21:20;11.20;99.90
13699;DHT22;6921;53.642;9.956;2023-12-28T12:25:28;11.10;99.90
13699;DHT22;6921;53.642;9.956;2023-12-28T12:27:32;11.10;99.90
13699;DHT22;6921;53.642;9.956;2023-12-28T12:29:35;11.00;99.90
13699;DHT22;6921;53.642;9.956;2023-12-28T12:31:39;11.20;99.90
13699;DHT22;6921;53.642;9.956;2023-12-28T12:33:43;11.20;99.90
13699;DHT22;6921;53.642;9.956;2023-12-28T12:35:50;11.10;99.90
13699;DHT22;6921;53.642;9.956;2023-12-28T12:37:53;11.20;99.90
13699;DHT22;6921;53.642;9.956;2023-12-28T12:39:57;11.20;99.90
13699;DHT22;6921;53.642;9.956;2023-12-28T12:41:59;11.20;99.90
13699;DHT22;6921;53.642;9.956;2023-12-28T12:44:02;11.40;99.90
13699;DHT22;6921;53.642;9.956;2023-12-28T12:46:05;11.00;99.90
13699;DHT22;6921;53.642;9.956;2023-12-28T12:48:09;11.20;99.90
13699;DHT22;6921;53.642;9.956;2023-12-28T12:50:11;11.60;99.90
13699;DHT22;6921;53.642;9.956;2023-12-28T12:52:15;11.30;99.90
13699;DHT22;6921;53.642;9.956;2023-12-28T12:54:18;11.20;99.90
13699;DHT22;6921;53.642;9.956;2023-12-28T12:56:22;11.20;99.90
13699;DHT22;6921;53.642;9.956;2023-12-28T12:58:25;11.20;99.90
13699;DHT22;6921;53.642;9.956;2023-12-28T13:00:29;11.30;99.90
13699;DHT22;6921;53.642;9.956;2023-12-28T13:02:33;11.30;99.90
13699;DHT22;6921;53.642;9.956;2023-12-28T13:06:42;11.30;99.90
13699;DHT22;6921;53.642;9.956;2023-12-28T13:08:46;11.40;99.90
13699;DHT22;6921;53.642;9.956;2023-12-28T13:10:49;11.20;99.90
13699;DHT22;6921;53.642;9.956;2023-12-28T13:12:52;11.30;99.90
13699;DHT22;6921;53.642;9.956;2023-12-28T13:14:57;11.20;99.90
13699;DHT22;6921;53.642;9.956;2023-12-28T13:17:00;11.20;99.90
13699;DHT22;6921;53.642;9.956;2023-12-28T13:21:06;11.80;99.90
13699;DHT22;6921;53.642;9.956;2023-12-28T13:23:09;11.30;99.90
13699;DHT22;6921;53.642;9.956;2023-12-28T13:25:13;11.20;99.90
13699;DHT22;6921;53.642;9.956;2023-12-28T13:27:17;11.20;99.90
13699;DHT22;6921;53.642;9.956;2023-12-28T13:29:20;11.20;99.90
13699;DHT22;6921;53.642;9.956;2023-12-28T13:31:23;11.30;99.90
13699;DHT22;6921;53.642;9.956;2023-12-28T13:33:28;11.50;99.90
13699;DHT22;6921;53.642;9.956;2023-12-28T13:35:31;11.30;99.90
13699;DHT22;6921;53.642;9.956;2023-12-28T13:37:35;11.50;99.90
13699;DHT22;6921;53.642;9.956;2023-12-28T13:39:38;11.30;99.90
13699;DHT22;6921;53.642;9.956;2023-12-28T13:41:43;10.80;99.90
13699;DHT22;6921;53.642;9.956;2023-12-28T13:43:46;11.40;99.90
13699;DHT22;6921;53.642;9.956;2023-12-28T13:47:52;11.20;99.90
13699;DHT22;6921;53.642;9.956;2023-12-28T13:49:55;11.20;99.90
13699;DHT22;6921;53.642;9.956;2023-12-28T13:51:58;11.20;99.90
13699;DHT22;6921;53.642;9.956;2023-12-28T13:54:01;10.90;99.90
13699;DHT22;6921;53.642;9.956;2023-12-28T13:56:06;11.30;99.90
13699;DHT22;6921;53.642;9.956;2023-12-28T13:58:11;11.20;99.90
13699;DHT22;6921;53.642;9.956;2023-12-28T14:00:15;11.30;99.90
13699;DHT22;6921;53.642;9.956;2023-12-28T14:02:18;11.20;99.90
13699;DHT22;6921;53.642;9.956;2023-12-28T14:04:23;11.10;99.90
13699;DHT22;6921;53.642;9.956;2023-12-28T14:06:25;9.90;99.90
13699;DHT22;6921;53.642;9.956;2023-12-28T14:08:29;11.00;99.90
13699;DHT22;6921;53.642;9.956;2023-12-28T14:10:31;11.00;99.90
13699;DHT22;6921;53.642;9.956;2023-12-28T14:12:35;10.90;99.90
13699;DHT22;6921;53.642;9.956;2023-12-28T14:14:40;11.10;99.90
13699;DHT22;6921;53.642;9.956;2023-12-28T14:16:43;10.90;99.90
13699;DHT22;6921;53.642;9.956;2023-12-28T14:18:47;10.80;99.90
13699;DHT22;6921;53.642;9.956;2023-12-28T14:20:51;11.20;99.90
13699;DHT22;6921;53.642;9.956;2023-12-28T14:22:54;10.70;99.90